sensor_id;sensor_type;location;lat;lon;timestamp;P1;durP1;ratioP1;P2;durP2;ratioP2
24995;SDS011;13016;52.162;21.034;2023-02-28T00:01:36;21.90;;;12.10;;
24995;SDS011;13016;52.162;21.034;2023-02-28T00:04:09;20.80;;;11.50;;
24995;SDS011;13016;52.162;21.034;2023-02-28T00:06:41;21.60;;;11.20;;
24995;SDS011;13016;52.162;21.034;2023-02-28T00:09:15;22.60;;;12.20;;
24995;SDS011;13016;52.162;21.034;2023-02-28T00:11:50;18.60;;;10.80;;
24995;SDS011;13016;52.162;21.034;2023-02-28T00:14:27;20.70;;;10.70;;
24995;SDS011;13016;52.162;21.034;2023-02-28T00:16:59;22.40;;;11.20;;
24995;SDS011;13016;52.162;21.034;2023-02-28T00:19:38;25.20;;;12.30;;
24995;SDS011;13016;52.162;21.034;2023-02-28T00:22:15;18.30;;;10.60;;
24995;SDS011;13016;52.162;21.034;2023-02-28T00:24:48;21.70;;;12.00;;
24995;SDS011;13016;52.162;21.034;2023-02-28T00:27:29;21.20;;;11.50;;
24995;SDS011;13016;52.162;21.034;2023-02-28T00:29:58;19.90;;;11.40;;
24995;SDS011;13016;52.162;21.034;2023-02-28T00:32:32;25.40;;;12.40;;
24995;SDS011;13016;52.162;21.034;2023-02-28T00:35:05;20.00;;;10.90;;
24995;SDS011;13016;52.162;21.034;2023-02-28T00:37:40;22.00;;;11.90;;
24995;SDS011;13016;52.162;21.034;2023-02-28T00:40:14;20.20;;;11.20;;
24995;SDS011;13016;52.162;21.034;2023-02-28T00:42:50;23.50;;;12.30;;
24995;SDS011;13016;52.162;21.034;2023-02-28T00:47:35;22.60;;;11.70;;
24995;SDS011;13016;52.162;21.034;2023-02-28T00:50:10;22.00;;;11.90;;
24995;SDS011;13016;52.162;21.034;2023-02-28T00:52:50;21.50;;;11.90;;
24995;SDS011;13016;52.162;21.034;2023-02-28T00:56:04;24.60;;;12.90;;
24995;SDS011;13016;52.162;21.034;2023-02-28T00:58:38;27.60;;;14.20;;
24995;SDS011;13016;52.162;21.034;2023-02-28T01:01:14;25.60;;;13.20;;
24995;SDS011;13016;52.162;21.034;2023-02-28T01:03:44;27.40;;;13.70;;
24995;SDS011;13016;52.162;21.034;2023-02-28T01:06:24;25.00;;;14.00;;
24995;SDS011;13016;52.162;21.034;2023-02-28T01:09:16;27.50;;;14.40;;
24995;SDS011;13016;52.162;21.034;2023-02-28T01:11:49;27.00;;;13.20;;
24995;SDS011;13016;52.162;21.034;2023-02-28T01:14:19;26.40;;;14.00;;
24995;SDS011;13016;52.162;21.034;2023-02-28T01:17:08;24.00;;;12.30;;
24995;SDS011;13016;52.162;21.034;2023-02-28T01:25:15;25.50;;;14.00;;
24995;SDS011;13016;52.162;21.034;2023-02-28T01:27:55;26.60;;;13.30;;
24995;SDS011;13016;52.162;21.034;2023-02-28T01:30:31;27.30;;;15.10;;
24995;SDS011;13016;52.162;21.034;2023-02-28T01:36:02;25.10;;;14.40;;
24995;SDS011;13016;52.162;21.034;2023-02-28T01:39:05;30.00;;;15.50;;
24995;SDS011;13016;52.162;21.034;2023-02-28T01:43:00;27.80;;;15.40;;
24995;SDS011;13016;52.162;21.034;2023-02-28T01:56:50;28.80;;;16.30;;
24995;SDS011;13016;52.162;21.034;2023-02-28T02:02:11;26.00;;;14.60;;
24995;SDS011;13016;52.162;21.034;2023-02-28T02:04:54;30.80;;;16.30;;
24995;SDS011;13016;52.162;21.034;2023-02-28T02:13:46;29.20;;;16.70;;
24995;SDS011;13016;52.162;21.034;2023-02-28T02:16:37;30.00;;;15.60;;
24995;SDS011;13016;52.162;21.034;2023-02-28T02:22:35;28.90;;;15.00;;
24995;SDS011;13016;52.162;21.034;2023-02-28T02:25:25;26.70;;;14.30;;
24995;SDS011;13016;52.162;21.034;2023-02-28T02:41:05;26.80;;;15.70;;
24995;SDS011;13016;52.162;21.034;2023-02-28T02:44:49;25.70;;;14.40;;
24995;SDS011;13016;52.162;21.034;2023-02-28T02:47:22;30.00;;;15.50;;
24995;SDS011;13016;52.162;21.034;2023-02-28T02:49:59;31.20;;;14.90;;
24995;SDS011;13016;52.162;21.034;2023-02-28T02:53:04;25.00;;;13.60;;
24995;SDS011;13016;52.162;21.034;2023-02-28T02:55:43;27.60;;;15.20;;
24995;SDS011;13016;52.162;21.034;2023-02-28T03:00:55;24.70;;;14.20;;
24995;SDS011;13016;52.162;21.034;2023-02-28T03:03:30;25.60;;;14.00;;
24995;SDS011;13016;52.162;21.034;2023-02-28T03:06:07;24.80;;;13.70;;
24995;SDS011;13016;52.162;21.034;2023-02-28T03:08:46;26.70;;;13.80;;
24995;SDS011;13016;52.162;21.034;2023-02-28T03:11:20;20.10;;;11.20;;
24995;SDS011;13016;52.162;21.034;2023-02-28T03:22:23;23.60;;;12.40;;
24995;SDS011;13016;52.162;21.034;2023-02-28T03:26:20;18.20;;;9.70;;
24995;SDS011;13016;52.162;21.034;2023-02-28T03:29:04;22.90;;;11.60;;
24995;SDS011;13016;52.162;21.034;2023-02-28T03:34:23;19.80;;;11.70;;
24995;SDS011;13016;52.162;21.034;2023-02-28T03:36:59;20.90;;;11.00;;
24995;SDS011;13016;52.162;21.034;2023-02-28T03:40:14;19.60;;;11.20;;
24995;SDS011;13016;52.162;21.034;2023-02-28T03:42:41;17.70;;;9.70;;
24995;SDS011;13016;52.162;21.034;2023-02-28T03:45:16;14.20;;;9.20;;
24995;SDS011;13016;52.162;21.034;2023-02-28T03:47:48;18.10;;;9.50;;
24995;SDS011;13016;52.162;21.034;2023-02-28T03:53:04;16.10;;;9.50;;
24995;SDS011;13016;52.162;21.034;2023-02-28T03:55:39;22.20;;;11.40;;
24995;SDS011;13016;52.162;21.034;2023-02-28T03:58:16;20.70;;;10.40;;
24995;SDS011;13016;52.162;21.034;2023-02-28T04:01:12;19.70;;;10.50;;
24995;SDS011;13016;52.162;21.034;2023-02-28T04:04:05;16.80;;;9.00;;
24995;SDS011;13016;52.162;21.034;2023-02-28T04:06:42;21.80;;;11.90;;
24995;SDS011;13016;52.162;21.034;2023-02-28T04:09:15;20.10;;;11.20;;
24995;SDS011;13016;52.162;21.034;2023-02-28T04:11:50;18.80;;;10.60;;
24995;SDS011;13016;52.162;21.034;2023-02-28T04:14:28;20.60;;;11.10;;
24995;SDS011;13016;52.162;21.034;2023-02-28T04:17:04;19.70;;;10.80;;
24995;SDS011;13016;52.162;21.034;2023-02-28T04:19:37;19.60;;;10.90;;
24995;SDS011;13016;52.162;21.034;2023-02-28T04:22:10;18.10;;;10.40;;
24995;SDS011;13016;52.162;21.034;2023-02-28T04:24:49;18.90;;;10.50;;
24995;SDS011;13016;52.162;21.034;2023-02-28T04:27:22;18.80;;;10.20;;
24995;SDS011;13016;52.162;21.034;2023-02-28T04:30:03;18.70;;;9.90;;
24995;SDS011;13016;52.162;21.034;2023-02-28T04:32:36;17.00;;;10.00;;
24995;SDS011;13016;52.162;21.034;2023-02-28T04:35:09;20.10;;;10.70;;
24995;SDS011;13016;52.162;21.034;2023-02-28T04:37:48;18.50;;;10.30;;
24995;SDS011;13016;52.162;21.034;2023-02-28T04:43:12;19.90;;;11.00;;
24995;SDS011;13016;52.162;21.034;2023-02-28T04:45:46;17.40;;;10.70;;
24995;SDS011;13016;52.162;21.034;2023-02-28T04:48:22;22.20;;;11.80;;
24995;SDS011;13016;52.162;21.034;2023-02-28T04:50:59;20.00;;;11.30;;
24995;SDS011;13016;52.162;21.034;2023-02-28T04:53:28;24.30;;;11.80;;
24995;SDS011;13016;52.162;21.034;2023-02-28T04:57:02;20.00;;;11.40;;
24995;SDS011;13016;52.162;21.034;2023-02-28T04:59:42;21.60;;;11.30;;
24995;SDS011;13016;52.162;21.034;2023-02-28T05:02:16;22.20;;;11.60;;
24995;SDS011;13016;52.162;21.034;2023-02-28T05:04:49;19.60;;;11.00;;
24995;SDS011;13016;52.162;21.034;2023-02-28T05:07:21;19.50;;;11.00;;
24995;SDS011;13016;52.162;21.034;2023-02-28T05:09:58;19.70;;;11.30;;
24995;SDS011;13016;52.162;21.034;2023-02-28T05:12:37;18.40;;;10.30;;
24995;SDS011;13016;52.162;21.034;2023-02-28T05:15:27;21.40;;;11.30;;
24995;SDS011;13016;52.162;21.034;2023-02-28T05:18:04;21.90;;;11.40;;
24995;SDS011;13016;52.162;21.034;2023-02-28T05:20:37;22.20;;;11.60;;
24995;SDS011;13016;52.162;21.034;2023-02-28T05:23:16;20.70;;;11.80;;
24995;SDS011;13016;52.162;21.034;2023-02-28T05:25:53;25.80;;;11.60;;
24995;SDS011;13016;52.162;21.034;2023-02-28T05:28:29;21.20;;;12.10;;
24995;SDS011;13016;52.162;21.034;2023-02-28T05:31:32;18.70;;;11.20;;
24995;SDS011;13016;52.162;21.034;2023-02-28T05:36:05;23.90;;;11.80;;
24995;SDS011;13016;52.162;21.034;2023-02-28T05:38:43;24.30;;;11.80;;
24995;SDS011;13016;52.162;21.034;2023-02-28T05:41:19;18.80;;;11.20;;
24995;SDS011;13016;52.162;21.034;2023-02-28T05:43:52;23.70;;;12.00;;
24995;SDS011;13016;52.162;21.034;2023-02-28T05:46:26;22.40;;;12.00;;
24995;SDS011;13016;52.162;21.034;2023-02-28T05:49:00;22.20;;;12.20;;
24995;SDS011;13016;52.162;21.034;2023-02-28T05:51:28;20.80;;;11.80;;
24995;SDS011;13016;52.162;21.034;2023-02-28T05:54:06;22.60;;;13.00;;
24995;SDS011;13016;52.162;21.034;2023-02-28T05:56:40;25.60;;;14.70;;
24995;SDS011;13016;52.162;21.034;2023-02-28T05:59:22;30.00;;;14.30;;
24995;SDS011;13016;52.162;21.034;2023-02-28T06:08:03;21.10;;;12.10;;
24995;SDS011;13016;52.162;21.034;2023-02-28T06:10:39;19.60;;;11.60;;
24995;SDS011;13016;52.162;21.034;2023-02-28T06:52:06;21.30;;;10.90;;
24995;SDS011;13016;52.162;21.034;2023-02-28T06:54:40;20.50;;;11.00;;
24995;SDS011;13016;52.162;21.034;2023-02-28T06:57:16;20.90;;;11.00;;
24995;SDS011;13016;52.162;21.034;2023-02-28T06:59:59;16.90;;;8.90;;
24995;SDS011;13016;52.162;21.034;2023-02-28T07:05:51;17.80;;;11.00;;
24995;SDS011;13016;52.162;21.034;2023-02-28T07:08:27;21.10;;;9.70;;
24995;SDS011;13016;52.162;21.034;2023-02-28T07:11:01;17.70;;;9.80;;
24995;SDS011;13016;52.162;21.034;2023-02-28T07:13:36;16.50;;;9.50;;
24995;SDS011;13016;52.162;21.034;2023-02-28T07:16:08;19.20;;;10.10;;
24995;SDS011;13016;52.162;21.034;2023-02-28T07:18:40;17.60;;;9.80;;
24995;SDS011;13016;52.162;21.034;2023-02-28T07:21:20;18.70;;;9.80;;
24995;SDS011;13016;52.162;21.034;2023-02-28T07:23:56;14.60;;;9.00;;
24995;SDS011;13016;52.162;21.034;2023-02-28T07:26:32;16.30;;;9.90;;
24995;SDS011;13016;52.162;21.034;2023-02-28T07:29:42;15.50;;;9.10;;
24995;SDS011;13016;52.162;21.034;2023-02-28T07:32:22;15.00;;;9.10;;
24995;SDS011;13016;52.162;21.034;2023-02-28T07:35:09;15.90;;;9.10;;
24995;SDS011;13016;52.162;21.034;2023-02-28T07:37:43;12.80;;;8.30;;
24995;SDS011;13016;52.162;21.034;2023-02-28T07:40:18;14.00;;;9.20;;
24995;SDS011;13016;52.162;21.034;2023-02-28T07:43:31;12.80;;;8.10;;
24995;SDS011;13016;52.162;21.034;2023-02-28T07:46:16;13.90;;;7.60;;
24995;SDS011;13016;52.162;21.034;2023-02-28T07:48:49;14.30;;;8.40;;
24995;SDS011;13016;52.162;21.034;2023-02-28T07:51:22;12.50;;;7.30;;
24995;SDS011;13016;52.162;21.034;2023-02-28T07:53:54;13.50;;;7.20;;
24995;SDS011;13016;52.162;21.034;2023-02-28T07:56:27;13.20;;;7.60;;
24995;SDS011;13016;52.162;21.034;2023-02-28T07:58:59;11.70;;;7.20;;
24995;SDS011;13016;52.162;21.034;2023-02-28T08:01:37;9.80;;;6.20;;
24995;SDS011;13016;52.162;21.034;2023-02-28T08:04:25;12.60;;;6.90;;
24995;SDS011;13016;52.162;21.034;2023-02-28T08:07:02;10.20;;;6.90;;
24995;SDS011;13016;52.162;21.034;2023-02-28T08:10:19;12.10;;;7.20;;
24995;SDS011;13016;52.162;21.034;2023-02-28T08:12:52;9.40;;;5.60;;
24995;SDS011;13016;52.162;21.034;2023-02-28T08:15:23;14.60;;;6.20;;
24995;SDS011;13016;52.162;21.034;2023-02-28T08:17:56;12.60;;;5.80;;
24995;SDS011;13016;52.162;21.034;2023-02-28T08:20:36;9.50;;;5.90;;
24995;SDS011;13016;52.162;21.034;2023-02-28T08:23:12;8.80;;;5.70;;
24995;SDS011;13016;52.162;21.034;2023-02-28T08:25:52;10.40;;;6.40;;
24995;SDS011;13016;52.162;21.034;2023-02-28T08:28:28;10.50;;;6.20;;
24995;SDS011;13016;52.162;21.034;2023-02-28T08:31:23;10.20;;;6.40;;
24995;SDS011;13016;52.162;21.034;2023-02-28T08:38:17;11.60;;;6.70;;
24995;SDS011;13016;52.162;21.034;2023-02-28T08:40:56;10.00;;;6.20;;
24995;SDS011;13016;52.162;21.034;2023-02-28T08:43:25;8.40;;;5.90;;
24995;SDS011;13016;52.162;21.034;2023-02-28T08:46:02;10.30;;;6.60;;
24995;SDS011;13016;52.162;21.034;2023-02-28T09:00:50;9.80;;;6.50;;
24995;SDS011;13016;52.162;21.034;2023-02-28T09:06:05;10.10;;;6.10;;
24995;SDS011;13016;52.162;21.034;2023-02-28T09:08:55;9.90;;;6.00;;
24995;SDS011;13016;52.162;21.034;2023-02-28T09:11:42;9.80;;;6.50;;
24995;SDS011;13016;52.162;21.034;2023-02-28T09:25:05;9.40;;;6.20;;
24995;SDS011;13016;52.162;21.034;2023-02-28T09:27:41;8.80;;;6.30;;
24995;SDS011;13016;52.162;21.034;2023-02-28T09:30:21;8.60;;;6.70;;
24995;SDS011;13016;52.162;21.034;2023-02-28T09:32:52;10.20;;;6.80;;
24995;SDS011;13016;52.162;21.034;2023-02-28T09:35:29;12.00;;;6.80;;
24995;SDS011;13016;52.162;21.034;2023-02-28T09:48:54;10.60;;;7.50;;
24995;SDS011;13016;52.162;21.034;2023-02-28T09:51:33;9.80;;;7.00;;
24995;SDS011;13016;52.162;21.034;2023-02-28T10:16:29;9.10;;;6.70;;
24995;SDS011;13016;52.162;21.034;2023-02-28T10:23:46;12.50;;;6.90;;
24995;SDS011;13016;52.162;21.034;2023-02-28T10:56:54;10.40;;;6.90;;
24995;SDS011;13016;52.162;21.034;2023-02-28T11:00:38;14.90;;;7.90;;
24995;SDS011;13016;52.162;21.034;2023-02-28T11:04:03;13.80;;;8.00;;
24995;SDS011;13016;52.162;21.034;2023-02-28T11:08:26;11.20;;;8.30;;
24995;SDS011;13016;52.162;21.034;2023-02-28T11:22:32;14.60;;;8.10;;
24995;SDS011;13016;52.162;21.034;2023-02-28T11:46:42;13.60;;;9.20;;
24995;SDS011;13016;52.162;21.034;2023-02-28T13:19:55;13.40;;;8.40;;
24995;SDS011;13016;52.162;21.034;2023-02-28T14:05:14;13.50;;;9.20;;
24995;SDS011;13016;52.162;21.034;2023-02-28T14:19:10;15.40;;;8.50;;
24995;SDS011;13016;52.162;21.034;2023-02-28T14:21:50;14.70;;;9.20;;
24995;SDS011;13016;52.162;21.034;2023-02-28T14:32:41;16.40;;;9.40;;
24995;SDS011;13016;52.162;21.034;2023-02-28T14:53:35;17.50;;;9.60;;
24995;SDS011;13016;52.162;21.034;2023-02-28T14:57:32;16.20;;;9.30;;
24995;SDS011;13016;52.162;21.034;2023-02-28T15:01:12;15.60;;;9.20;;
24995;SDS011;13016;52.162;21.034;2023-02-28T15:07:11;14.80;;;9.50;;
24995;SDS011;13016;52.162;21.034;2023-02-28T15:12:44;18.00;;;9.50;;
24995;SDS011;13016;52.162;21.034;2023-02-28T15:15:24;14.80;;;9.70;;
24995;SDS011;13016;52.162;21.034;2023-02-28T15:25:25;17.50;;;9.20;;
24995;SDS011;13016;52.162;21.034;2023-02-28T15:27:54;15.30;;;9.20;;
24995;SDS011;13016;52.162;21.034;2023-02-28T16:26:12;16.30;;;9.70;;
24995;SDS011;13016;52.162;21.034;2023-02-28T17:08:00;21.90;;;11.90;;
24995;SDS011;13016;52.162;21.034;2023-02-28T17:45:47;23.30;;;13.40;;
24995;SDS011;13016;52.162;21.034;2023-02-28T17:54:17;28.50;;;14.00;;
24995;SDS011;13016;52.162;21.034;2023-02-28T18:00:08;23.00;;;13.40;;
24995;SDS011;13016;52.162;21.034;2023-02-28T18:02:43;27.10;;;14.70;;
24995;SDS011;13016;52.162;21.034;2023-02-28T18:05:56;29.80;;;15.20;;
24995;SDS011;13016;52.162;21.034;2023-02-28T18:11:27;33.50;;;14.90;;
24995;SDS011;13016;52.162;21.034;2023-02-28T18:14:25;29.20;;;15.20;;
24995;SDS011;13016;52.162;21.034;2023-02-28T18:19:48;28.20;;;15.20;;
24995;SDS011;13016;52.162;21.034;2023-02-28T18:28:29;27.90;;;15.40;;
24995;SDS011;13016;52.162;21.034;2023-02-28T18:36:46;32.10;;;17.60;;
24995;SDS011;13016;52.162;21.034;2023-02-28T18:59:33;37.70;;;21.00;;
24995;SDS011;13016;52.162;21.034;2023-02-28T19:18:26;46.40;;;23.70;;
24995;SDS011;13016;52.162;21.034;2023-02-28T19:21:06;40.50;;;23.50;;
24995;SDS011;13016;52.162;21.034;2023-02-28T19:23:41;49.80;;;23.70;;
24995;SDS011;13016;52.162;21.034;2023-02-28T19:26:24;43.00;;;23.20;;
24995;SDS011;13016;52.162;21.034;2023-02-28T19:29:01;42.20;;;23.30;;
24995;SDS011;13016;52.162;21.034;2023-02-28T19:32:59;44.50;;;23.10;;
24995;SDS011;13016;52.162;21.034;2023-02-28T19:35:41;41.30;;;23.00;;
24995;SDS011;13016;52.162;21.034;2023-02-28T19:38:15;48.40;;;24.40;;
24995;SDS011;13016;52.162;21.034;2023-02-28T19:43:56;47.20;;;24.10;;
24995;SDS011;13016;52.162;21.034;2023-02-28T19:46:32;56.60;;;25.00;;
24995;SDS011;13016;52.162;21.034;2023-02-28T19:49:59;44.00;;;25.30;;
24995;SDS011;13016;52.162;21.034;2023-02-28T19:52:59;45.10;;;24.80;;
24995;SDS011;13016;52.162;21.034;2023-02-28T19:56:47;45.60;;;24.00;;
24995;SDS011;13016;52.162;21.034;2023-02-28T19:59:56;43.60;;;23.80;;
24995;SDS011;13016;52.162;21.034;2023-02-28T20:02:27;48.60;;;23.40;;
24995;SDS011;13016;52.162;21.034;2023-02-28T20:07:51;46.30;;;23.50;;
24995;SDS011;13016;52.162;21.034;2023-02-28T20:11:17;43.50;;;23.80;;
24995;SDS011;13016;52.162;21.034;2023-02-28T20:13:55;49.80;;;24.20;;
24995;SDS011;13016;52.162;21.034;2023-02-28T20:16:46;44.80;;;22.80;;
24995;SDS011;13016;52.162;21.034;2023-02-28T20:19:19;44.80;;;23.80;;
24995;SDS011;13016;52.162;21.034;2023-02-28T20:24:38;46.80;;;25.40;;
24995;SDS011;13016;52.162;21.034;2023-02-28T20:27:33;48.10;;;24.60;;
24995;SDS011;13016;52.162;21.034;2023-02-28T20:30:12;49.70;;;25.40;;
24995;SDS011;13016;52.162;21.034;2023-02-28T20:32:45;44.30;;;24.50;;
24995;SDS011;13016;52.162;21.034;2023-02-28T20:35:25;51.50;;;25.20;;
24995;SDS011;13016;52.162;21.034;2023-02-28T20:37:58;48.90;;;24.30;;
24995;SDS011;13016;52.162;21.034;2023-02-28T20:40:39;45.00;;;24.80;;
24995;SDS011;13016;52.162;21.034;2023-02-28T20:43:15;51.00;;;24.90;;
24995;SDS011;13016;52.162;21.034;2023-02-28T20:45:51;44.30;;;24.30;;
24995;SDS011;13016;52.162;21.034;2023-02-28T20:48:56;46.30;;;25.20;;
24995;SDS011;13016;52.162;21.034;2023-02-28T20:51:52;49.10;;;26.30;;
24995;SDS011;13016;52.162;21.034;2023-02-28T20:54:37;121.60;;;54.70;;
24995;SDS011;13016;52.162;21.034;2023-02-28T20:57:45;51.50;;;26.80;;
24995;SDS011;13016;52.162;21.034;2023-02-28T21:00:39;53.60;;;28.40;;
24995;SDS011;13016;52.162;21.034;2023-02-28T21:03:12;61.30;;;28.70;;
24995;SDS011;13016;52.162;21.034;2023-02-28T21:05:45;59.80;;;28.80;;
24995;SDS011;13016;52.162;21.034;2023-02-28T21:08:27;54.90;;;28.40;;
24995;SDS011;13016;52.162;21.034;2023-02-28T21:11:30;55.50;;;29.60;;
24995;SDS011;13016;52.162;21.034;2023-02-28T21:14:16;62.20;;;31.40;;
24995;SDS011;13016;52.162;21.034;2023-02-28T21:16:51;63.70;;;30.90;;
24995;SDS011;13016;52.162;21.034;2023-02-28T21:19:24;64.00;;;31.50;;
24995;SDS011;13016;52.162;21.034;2023-02-28T21:21:58;67.60;;;33.30;;
24995;SDS011;13016;52.162;21.034;2023-02-28T21:24:36;69.80;;;33.10;;
24995;SDS011;13016;52.162;21.034;2023-02-28T21:27:29;66.80;;;34.10;;
24995;SDS011;13016;52.162;21.034;2023-02-28T21:30:23;70.20;;;34.60;;
24995;SDS011;13016;52.162;21.034;2023-02-28T21:32:59;65.30;;;33.20;;
24995;SDS011;13016;52.162;21.034;2023-02-28T21:35:45;71.00;;;35.40;;
24995;SDS011;13016;52.162;21.034;2023-02-28T21:38:24;69.50;;;34.10;;
24995;SDS011;13016;52.162;21.034;2023-02-28T21:41:12;75.80;;;36.40;;
24995;SDS011;13016;52.162;21.034;2023-02-28T21:46:08;74.20;;;39.80;;
24995;SDS011;13016;52.162;21.034;2023-02-28T21:49:19;75.60;;;39.90;;
24995;SDS011;13016;52.162;21.034;2023-02-28T22:11:00;79.60;;;44.30;;
24995;SDS011;13016;52.162;21.034;2023-02-28T22:28:20;74.30;;;39.40;;
24995;SDS011;13016;52.162;21.034;2023-02-28T22:31:26;70.50;;;39.00;;
24995;SDS011;13016;52.162;21.034;2023-02-28T22:35:05;70.20;;;38.90;;
24995;SDS011;13016;52.162;21.034;2023-02-28T22:39:09;68.50;;;38.70;;
24995;SDS011;13016;52.162;21.034;2023-02-28T22:42:46;66.60;;;37.20;;
24995;SDS011;13016;52.162;21.034;2023-02-28T22:46:08;75.40;;;39.80;;
24995;SDS011;13016;52.162;21.034;2023-02-28T22:59:56;79.60;;;41.90;;
24995;SDS011;13016;52.162;21.034;2023-02-28T23:03:02;77.80;;;41.60;;
24995;SDS011;13016;52.162;21.034;2023-02-28T23:05:39;90.30;;;42.90;;
24995;SDS011;13016;52.162;21.034;2023-02-28T23:08:18;92.80;;;45.60;;
24995;SDS011;13016;52.162;21.034;2023-02-28T23:11:26;81.20;;;41.50;;
24995;SDS011;13016;52.162;21.034;2023-02-28T23:13:59;82.50;;;41.90;;
24995;SDS011;13016;52.162;21.034;2023-02-28T23:17:48;86.30;;;43.70;;
24995;SDS011;13016;52.162;21.034;2023-02-28T23:22:18;86.20;;;42.90;;
24995;SDS011;13016;52.162;21.034;2023-02-28T23:39:07;83.00;;;41.40;;
24995;SDS011;13016;52.162;21.034;2023-02-28T23:42:33;83.70;;;41.40;;
24995;SDS011;13016;52.162;21.034;2023-02-28T23:46:21;82.80;;;43.30;;
24995;SDS011;13016;52.162;21.034;2023-02-28T23:49:51;85.70;;;44.50;;
24995;SDS011;13016;52.162;21.034;2023-02-28T23:53:59;85.10;;;45.70;;
24995;SDS011;13016;52.162;21.034;2023-02-28T23:57:33;96.10;;;48.40;;
